Time;durP1;ratioP1;P1;durP2;ratioP2;P2;SDS_P1;SDS_P2;PMS_P1;PMS_P2;Temp;Humidity;BMP_temperature;BMP_pressure;BME280_temperature;BME280_humidity;BME280_pressure;Samples;Min_cycle;Max_cycle;Signal;HPM_P1;HPM_P2
2024/01/11 00:01:31;;;;;;;1.50;1.50;;;;;;;-8.12;73.07;98733.22;4957976;28;20086;-73
2024/01/11 00:03:59;;;;;;;1.35;1.35;;;;;;;-8.12;72.88;98726.31;4951841;28;20051;-72
2024/01/11 00:06:27;;;;;;;1.85;1.83;;;;;;;-8.16;72.89;98741.06;4952139;28;20069;-73
2024/01/11 00:08:55;;;;;;;1.38;1.38;;;;;;;-8.17;73.33;98733.34;4953251;28;20039;-73
2024/01/11 00:11:22;;;;;;;1.08;1.08;;;;;;;-8.10;72.73;98724.50;4959650;28;20486;-72
2024/01/11 00:13:50;;;;;;;1.63;1.63;;;;;;;-7.97;72.09;98730.94;4952653;28;20081;-72
2024/01/11 00:16:17;;;;;;;1.08;1.08;;;;;;;-8.30;72.32;98722.56;4958374;28;20054;-72
2024/01/11 00:18:45;;;;;;;1.08;1.08;;;;;;;-8.48;72.76;98728.38;4968305;28;20513;-72
2024/01/11 00:21:14;;;;;;;1.10;1.10;;;;;;;-8.62;72.67;98728.84;4962736;28;20070;-72
2024/01/11 00:23:42;;;;;;;1.50;1.50;;;;;;;-8.79;73.16;98728.50;4966713;28;20050;-72
2024/01/11 00:26:09;;;;;;;1.67;1.58;;;;;;;-8.61;72.28;98727.91;4950072;28;20139;-73
2024/01/11 00:28:37;;;;;;;1.13;1.13;;;;;;;-8.67;72.53;98728.13;4970116;28;20113;-73
2024/01/11 00:31:05;;;;;;;1.17;1.17;;;;;;;-8.75;72.70;98722.34;4962365;28;20083;-72
2024/01/11 00:33:32;;;;;;;1.40;1.40;;;;;;;-8.79;73.29;98723.31;4938633;28;20050;-73
2024/01/11 00:36:00;;;;;;;1.83;1.73;;;;;;;-8.74;73.06;98725.78;4956081;28;20051;-72
2024/01/11 00:38:29;;;;;;;1.23;1.23;;;;;;;-8.79;73.68;98727.66;4970622;28;20093;-72
2024/01/11 00:40:57;;;;;;;1.30;1.30;;;;;;;-8.80;73.84;98723.38;4964028;28;20054;-72
2024/01/11 00:43:24;;;;;;;1.48;1.48;;;;;;;-8.69;73.17;98718.72;4959296;28;20051;-72
2024/01/11 00:45:54;;;;;;;1.50;1.50;;;;;;;-8.78;73.60;98712.09;4954049;28;20047;-72
2024/01/11 00:48:21;;;;;;;1.98;1.90;;;;;;;-8.88;74.05;98718.44;4956638;28;20569;-72
2024/01/11 00:50:49;;;;;;;1.33;1.33;;;;;;;-8.90;74.49;98721.06;4958412;28;20079;-72
2024/01/11 00:53:17;;;;;;;0.70;0.70;;;;;;;-8.84;74.02;98716.63;4956889;28;20053;-71
2024/01/11 00:55:46;;;;;;;1.35;1.35;;;;;;;-8.94;74.73;98713.47;4962360;28;20059;-71
2024/01/11 00:58:13;;;;;;;0.55;0.55;;;;;;;-8.95;74.78;98712.63;4963210;28;20062;-71
2024/01/11 01:00:41;;;;;;;0.50;0.50;;;;;;;-8.91;74.48;98711.63;4966426;28;20395;-71
2024/01/11 01:03:09;;;;;;;0.50;0.50;;;;;;;-8.92;74.62;98715.09;4964025;28;20451;-71
2024/01/11 01:05:39;;;;;;;1.38;1.38;;;;;;;-8.87;74.98;98709.78;4963170;28;20043;-71
2024/01/11 01:08:07;;;;;;;1.30;1.30;;;;;;;-8.71;73.92;98712.72;4954579;28;20050;-71
2024/01/11 01:10:35;;;;;;;1.30;1.30;;;;;;;-8.72;73.68;98713.66;4947936;28;20040;-74
2024/01/11 01:13:06;;;;;;;1.77;1.77;;;;;;;-8.73;73.28;98715.41;4960174;28;20059;-71
2024/01/11 01:15:34;;;;;;;1.20;1.20;;;;;;;-8.96;73.46;98710.94;4954908;28;20490;-70
2024/01/11 01:18:01;;;;;;;1.60;1.60;;;;;;;-9.02;73.76;98712.84;4936471;29;20076;-70
2024/01/11 01:20:29;;;;;;;1.75;1.75;;;;;;;-8.95;73.42;98697.13;4952733;28;20043;-71
2024/01/11 01:22:57;;;;;;;1.70;1.70;;;;;;;-9.11;74.01;98705.38;4958045;28;20114;-70
2024/01/11 01:25:25;;;;;;;0.50;0.50;;;;;;;-9.10;73.17;98704.47;4960656;28;20418;-70
2024/01/11 01:27:52;;;;;;;1.13;1.13;;;;;;;-9.13;73.27;98699.38;4957775;28;20491;-71
2024/01/11 01:30:23;;;;;;;1.42;1.42;;;;;;;-9.05;73.11;98706.03;4956419;28;20048;-71
2024/01/11 01:32:50;;;;;;;1.38;1.38;;;;;;;-8.97;72.75;98705.81;4952377;28;20047;-71
2024/01/11 01:35:18;;;;;;;1.38;1.38;;;;;;;-8.91;72.13;98703.00;4964388;28;20051;-72
2024/01/11 01:37:46;;;;;;;1.60;1.60;;;;;;;-8.96;72.40;98700.59;4959973;28;20122;-71
2024/01/11 01:40:13;;;;;;;1.27;1.27;;;;;;;-9.09;73.36;98695.84;4968198;28;20067;-71
2024/01/11 01:42:43;;;;;;;1.35;1.35;;;;;;;-9.13;73.54;98699.38;4960159;28;20051;-71
2024/01/11 01:45:11;;;;;;;0.45;0.45;;;;;;;-9.19;73.64;98697.00;4962954;28;20383;-70
2024/01/11 01:47:43;;;;;;;1.23;1.23;;;;;;;-9.25;74.20;98692.03;4965556;28;20625;-71
2024/01/11 01:50:11;;;;;;;;;;;;;;;-9.32;74.11;98693.94;4954569;28;20051;-71
2024/01/11 01:52:41;;;;;;;1.02;1.02;;;;;;;-9.22;73.40;98686.75;4952703;28;19923;-71
2024/01/11 01:55:10;;;;;;;0.50;0.50;;;;;;;-9.10;73.08;98688.97;4954527;28;20043;-71
2024/01/11 01:57:40;;;;;;;1.52;1.52;;;;;;;-8.97;72.56;98682.53;4963370;28;20122;-71
2024/01/11 02:00:09;;;;;;;1.48;1.48;;;;;;;-9.06;72.40;98678.50;4955201;28;20047;-71
2024/01/11 02:02:43;;;;;;;1.25;1.25;;;;;;;-9.29;73.47;98670.59;4953540;28;20043;-71
2024/01/11 02:05:12;;;;;;;1.35;1.35;;;;;;;-9.42;73.82;98662.34;4936257;29;20043;-73
2024/01/11 02:07:40;;;;;;;1.35;1.35;;;;;;;-9.61;74.74;98663.78;4959059;28;20039;-71
2024/01/11 02:10:08;;;;;;;1.15;1.15;;;;;;;-9.83;75.55;98668.72;4955637;28;20055;-73
2024/01/11 02:12:37;;;;;;;0.50;0.50;;;;;;;-9.91;76.10;98662.94;4952628;28;20051;-71
2024/01/11 02:15:06;;;;;;;0.65;0.65;;;;;;;-9.89;75.96;98668.91;4953397;28;20396;-71
2024/01/11 02:17:33;;;;;;;1.45;1.45;;;;;;;-9.83;75.77;98662.69;4953221;28;20054;-72
2024/01/11 02:20:04;;;;;;;0.88;0.88;;;;;;;-9.75;75.71;98673.66;4965890;28;20090;-71
2024/01/11 02:22:33;;;;;;;1.25;1.25;;;;;;;-9.69;75.07;98666.59;4959095;28;20047;-71
2024/01/11 02:25:02;;;;;;;1.08;1.08;;;;;;;-9.72;75.58;98660.66;4960790;28;20047;-71
2024/01/11 02:27:29;;;;;;;1.20;1.20;;;;;;;-9.66;75.32;98666.53;4961859;28;20081;-71
2024/01/11 02:29:57;;;;;;;1.60;1.60;;;;;;;-9.51;75.00;98660.06;4961381;28;20047;-71
2024/01/11 02:32:25;;;;;;;1.33;1.33;;;;;;;-9.47;74.90;98655.66;4952961;28;20065;-71
2024/01/11 02:34:53;;;;;;;1.45;1.45;;;;;;;-9.34;74.07;98651.78;4954460;28;20043;-70
2024/01/11 02:37:20;;;;;;;1.30;1.30;;;;;;;-9.37;73.72;98650.16;4958450;28;20059;-71
2024/01/11 02:39:48;;;;;;;1.27;1.27;;;;;;;-9.43;73.71;98658.06;4962774;28;20039;-70
2024/01/11 02:42:17;;;;;;;1.50;1.50;;;;;;;-9.40;73.42;98652.81;4953942;28;20126;-70
2024/01/11 02:44:44;;;;;;;1.63;1.63;;;;;;;-9.41;73.39;98648.56;4960455;28;20051;-71
2024/01/11 02:47:12;;;;;;;1.10;1.10;;;;;;;-9.56;74.40;98646.44;4960052;28;20052;-71
2024/01/11 02:49:39;;;;;;;1.05;1.05;;;;;;;-9.56;74.40;98656.78;4968527;28;20130;-71
2024/01/11 02:52:07;;;;;;;1.27;1.27;;;;;;;-9.47;74.74;98671.16;4960424;28;20051;-73
2024/01/11 02:54:34;;;;;;;1.63;1.63;;;;;;;-9.32;74.54;98661.19;4951045;28;20579;-71
2024/01/11 02:57:02;;;;;;;1.35;1.35;;;;;;;-9.25;74.20;98655.84;4955730;28;20054;-70
2024/01/11 02:59:31;;;;;;;1.35;1.35;;;;;;;-9.23;73.55;98649.72;4954641;28;20043;-71
2024/01/11 03:01:59;;;;;;;1.70;1.65;;;;;;;-9.36;73.24;98654.44;4959690;28;20054;-71
2024/01/11 03:04:26;;;;;;;0.82;0.82;;;;;;;-9.39;74.29;98654.53;4952513;28;20459;-71
2024/01/11 03:06:53;;;;;;;1.40;1.38;;;;;;;-9.34;74.24;98662.13;4963243;28;20055;-71
2024/01/11 03:09:21;;;;;;;1.35;1.35;;;;;;;-9.33;73.80;98659.50;4943240;28;20058;-71
2024/01/11 03:11:48;;;;;;;1.40;1.40;;;;;;;-9.37;73.37;98662.22;4961631;28;20047;-71
2024/01/11 03:14:16;;;;;;;1.25;1.25;;;;;;;-9.46;73.91;98659.94;4952723;28;20070;-72
2024/01/11 03:16:46;;;;;;;1.20;1.20;;;;;;;-9.52;73.95;98647.16;4960894;28;20102;-71
2024/01/11 03:19:13;;;;;;;1.42;1.42;;;;;;;-9.60;73.89;98656.88;4964868;28;20051;-71
2024/01/11 03:21:43;;;;;;;1.63;1.63;;;;;;;-9.57;73.70;98661.97;4937357;28;20514;-71
2024/01/11 03:24:11;;;;;;;1.27;1.27;;;;;;;-9.53;73.92;98658.38;4954943;28;20081;-71
2024/01/11 03:26:38;;;;;;;1.75;1.75;;;;;;;-9.55;73.84;98670.53;4963347;28;20056;-71
2024/01/11 03:29:06;;;;;;;1.48;1.48;;;;;;;-9.56;74.34;98666.25;4960356;28;20036;-71
2024/01/11 03:31:33;;;;;;;1.63;1.63;;;;;;;-9.41;73.90;98651.13;4959428;28;20043;-71
2024/01/11 03:34:02;;;;;;;1.45;1.45;;;;;;;-9.45;73.74;98654.72;4953802;28;20051;-72
2024/01/11 03:36:30;;;;;;;1.60;1.60;;;;;;;-9.38;74.24;98671.72;4961090;28;20047;-71
2024/01/11 03:38:58;;;;;;;1.20;1.20;;;;;;;-9.23;73.92;98674.72;4956643;28;20251;-70
2024/01/11 03:41:25;;;;;;;1.00;1.00;;;;;;;-9.16;73.92;98674.50;4953988;28;20039;-71
2024/01/11 03:43:53;;;;;;;1.25;1.25;;;;;;;-9.11;73.61;98684.69;4955985;28;20494;-71
2024/01/11 03:46:21;;;;;;;1.58;1.58;;;;;;;-9.14;73.76;98679.63;4956906;28;20043;-72
2024/01/11 03:48:49;;;;;;;1.58;1.58;;;;;;;-9.08;73.54;98689.78;4950084;28;20050;-72
2024/01/11 03:51:18;;;;;;;1.40;1.40;;;;;;;-9.04;73.18;98693.97;4951403;28;20098;-72
2024/01/11 03:53:45;;;;;;;2.55;2.45;;;;;;;-9.15;73.35;98691.72;4952552;28;20129;-72
2024/01/11 03:56:13;;;;;;;1.35;1.35;;;;;;;-9.03;72.84;98683.56;4947329;28;20125;-71
2024/01/11 03:58:41;;;;;;;1.08;1.08;;;;;;;-9.16;72.79;98687.44;4960953;28;20062;-72
2024/01/11 04:01:10;;;;;;;1.17;1.17;;;;;;;-9.17;72.94;98688.31;4956483;28;20049;-71
2024/01/11 04:03:38;;;;;;;1.83;1.83;;;;;;;-9.18;71.73;98701.28;4952640;28;20050;-71
2024/01/11 04:06:07;;;;;;;1.20;1.20;;;;;;;-9.22;72.61;98710.00;4953201;28;20051;-71
2024/01/11 04:08:36;;;;;;;0.50;0.50;;;;;;;-9.24;73.00;98704.06;4944179;28;20445;-70
2024/01/11 04:11:04;;;;;;;1.30;1.30;;;;;;;-9.36;72.70;98693.19;4954399;28;20047;-71
2024/01/11 04:13:32;;;;;;;1.05;1.05;;;;;;;-9.48;72.51;98685.81;4951700;28;20043;-71
2024/01/11 04:15:59;;;;;;;1.20;1.20;;;;;;;-9.59;72.60;98692.16;4960125;28;20043;-71
2024/01/11 04:18:27;;;;;;;1.27;1.27;;;;;;;-9.75;73.17;98713.22;4959822;28;20518;-71
2024/01/11 04:20:55;;;;;;;0.47;0.47;;;;;;;-9.69;73.38;98712.22;4952949;28;20462;-70
2024/01/11 04:23:22;;;;;;;1.15;1.15;;;;;;;-9.69;72.78;98700.16;4958618;28;20054;-71
2024/01/11 04:25:51;;;;;;;0.47;0.47;;;;;;;-9.88;73.52;98706.72;4960047;28;20103;-71
2024/01/11 04:28:19;;;;;;;1.67;1.67;;;;;;;-9.90;73.36;98703.34;4952893;28;20075;-71
2024/01/11 04:30:46;;;;;;;1.58;1.58;;;;;;;-9.90;74.25;98710.25;4953772;28;20529;-71
2024/01/11 04:33:14;;;;;;;1.33;1.33;;;;;;;-9.87;73.91;98715.31;4953043;28;20051;-70
2024/01/11 04:35:42;;;;;;;1.70;1.70;;;;;;;-9.87;73.90;98713.59;4950703;28;20054;-71
2024/01/11 04:38:10;;;;;;;1.48;1.48;;;;;;;-9.87;73.75;98699.84;4956765;28;20056;-71
2024/01/11 04:40:38;;;;;;;1.88;1.88;;;;;;;-10.06;74.12;98691.72;4954894;28;20046;-71
2024/01/11 04:43:07;;;;;;;1.35;1.35;;;;;;;-10.24;75.09;98685.34;4957277;28;20058;-73
2024/01/11 04:45:35;;;;;;;1.67;1.67;;;;;;;-10.18;74.69;98686.94;4952088;28;20126;-71
2024/01/11 04:48:03;;;;;;;1.48;1.48;;;;;;;-10.19;75.46;98700.72;4962954;28;20043;-70
2024/01/11 04:50:30;;;;;;;1.48;1.48;;;;;;;-10.07;75.54;98706.34;4952388;28;20046;-70
2024/01/11 04:52:58;;;;;;;1.00;1.00;;;;;;;-9.96;74.90;98705.22;4949337;28;20137;-71
2024/01/11 04:55:26;;;;;;;1.38;1.38;;;;;;;-9.72;73.59;98699.41;4945615;28;20054;-71
2024/01/11 04:57:53;;;;;;;1.35;1.35;;;;;;;-9.71;72.67;98685.59;4951167;28;20061;-71
2024/01/11 05:00:22;;;;;;;1.17;1.17;;;;;;;-9.99;73.88;98688.09;4952661;28;20079;-71
2024/01/11 05:02:50;;;;;;;1.23;1.23;;;;;;;-9.96;74.52;98698.31;4955701;28;20063;-74
2024/01/11 05:05:17;;;;;;;1.35;1.35;;;;;;;-9.78;73.60;98686.69;4953858;28;20562;-71
2024/01/11 05:07:45;;;;;;;1.27;1.27;;;;;;;-10.01;74.04;98690.72;4954273;28;20121;-70
2024/01/11 05:10:13;;;;;;;1.98;1.95;;;;;;;-10.10;74.42;98690.97;4954851;28;20054;-73
2024/01/11 05:12:40;;;;;;;0.50;0.50;;;;;;;-9.97;73.61;98704.41;4955114;28;20386;-71
2024/01/11 05:15:09;;;;;;;1.40;1.40;;;;;;;-10.03;73.71;98696.81;4950788;28;20054;-71
2024/01/11 05:17:38;;;;;;;1.92;1.92;;;;;;;-9.93;73.50;98698.25;4961232;28;20486;-71
2024/01/11 05:20:07;;;;;;;1.55;1.55;;;;;;;-9.81;72.50;98694.50;4962674;28;20181;-73
2024/01/11 05:22:35;;;;;;;0.40;0.40;;;;;;;-9.91;73.05;98711.97;4958188;28;20103;-71
2024/01/11 05:25:03;;;;;;;0.55;0.55;;;;;;;-9.95;73.15;98712.09;4985183;23;20454;-74
2024/01/11 05:27:30;;;;;;;1.02;1.02;;;;;;;-10.18;73.44;98711.00;4973777;28;20106;-74
2024/01/11 05:29:58;;;;;;;1.25;1.25;;;;;;;-10.30;73.82;98698.41;4971188;28;20046;-74
2024/01/11 05:32:26;;;;;;;1.13;1.13;;;;;;;-10.51;74.14;98698.97;4974826;28;20042;-75
2024/01/11 05:34:55;;;;;;;1.75;1.75;;;;;;;-10.57;74.80;98705.09;4966596;28;20123;-75
2024/01/11 05:37:22;;;;;;;1.23;1.23;;;;;;;-10.63;74.82;98701.84;4954290;29;20157;-73
2024/01/11 05:39:50;;;;;;;1.17;1.17;;;;;;;-10.83;75.02;98689.44;4953196;28;20054;-73
2024/01/11 05:42:17;;;;;;;2.45;2.35;;;;;;;-10.76;75.76;98706.44;4958332;28;20046;-74
2024/01/11 05:44:45;;;;;;;1.25;1.25;;;;;;;-10.69;75.15;98714.88;4957880;28;20119;-74
2024/01/11 05:47:12;;;;;;;1.63;1.63;;;;;;;-10.62;75.05;98731.91;4955594;29;20158;-75
2024/01/11 05:49:41;;;;;;;1.05;1.05;;;;;;;-10.58;74.88;98707.72;4957710;29;20475;-75
2024/01/11 05:52:10;;;;;;;1.15;1.15;;;;;;;-10.54;74.60;98723.09;4952755;28;20039;-74
2024/01/11 05:54:37;;;;;;;1.48;1.45;;;;;;;-10.39;74.40;98727.03;4955065;28;20050;-74
2024/01/11 05:57:05;;;;;;;1.20;1.20;;;;;;;-10.36;74.23;98728.66;4953055;28;20122;-73
2024/01/11 05:59:32;;;;;;;1.10;1.10;;;;;;;-10.47;74.28;98728.94;4954439;29;20047;-73
2024/01/11 06:02:01;;;;;;;0.50;0.50;;;;;;;-10.39;74.29;98732.19;4951487;28;20448;-73
2024/01/11 06:04:29;;;;;;;2.40;1.40;;;;;;;-10.35;74.57;98753.56;4953794;29;20050;-73
2024/01/11 06:06:57;;;;;;;1.10;1.10;;;;;;;-10.31;74.80;98762.94;4952849;28;20043;-75
2024/01/11 06:09:26;;;;;;;1.25;1.25;;;;;;;-10.18;74.27;98752.28;4954597;29;20057;-74
2024/01/11 06:11:54;;;;;;;1.13;1.13;;;;;;;-10.41;74.20;98742.53;4936267;29;20044;-74
2024/01/11 06:14:23;;;;;;;0.95;0.95;;;;;;;-10.51;75.20;98766.00;4951972;28;20065;-74
2024/01/11 06:16:50;;;;;;;1.27;1.27;;;;;;;-10.31;75.13;98762.94;4953777;29;20051;-74
2024/01/11 06:19:18;;;;;;;1.52;1.52;;;;;;;-10.22;74.80;98763.56;4953888;29;20494;-74
2024/01/11 06:21:46;;;;;;;1.58;1.48;;;;;;;-10.24;74.58;98755.00;4952779;28;20166;-75
2024/01/11 06:24:14;;;;;;;1.42;1.42;;;;;;;-10.20;74.19;98766.09;4954013;28;20066;-75
2024/01/11 06:26:43;;;;;;;1.50;1.50;;;;;;;-10.35;74.38;98764.75;4953207;28;20059;-75
2024/01/11 06:29:11;;;;;;;1.33;1.33;;;;;;;-10.22;74.62;98760.13;4953896;28;20126;-75
2024/01/11 06:31:38;;;;;;;1.45;1.45;;;;;;;-10.36;74.30;98757.88;4954371;28;20053;-74
2024/01/11 06:34:06;;;;;;;1.25;1.25;;;;;;;-10.59;74.77;98745.56;4953984;29;20062;-75
2024/01/11 06:36:34;;;;;;;1.33;1.33;;;;;;;-10.84;75.64;98731.56;4954117;29;20075;-75
2024/01/11 06:39:01;;;;;;;2.35;2.25;;;;;;;-10.87;76.05;98721.31;4953333;28;20081;-75
2024/01/11 06:41:29;;;;;;;1.00;1.00;;;;;;;-10.79;76.06;98738.28;4952895;28;20049;-74
2024/01/11 06:43:58;;;;;;;1.65;1.65;;;;;;;-10.68;75.97;98738.03;4937003;29;20051;-75
2024/01/11 06:46:28;;;;;;;1.42;1.42;;;;;;;-10.58;75.47;98742.09;4948510;29;20051;-75
2024/01/11 06:48:56;;;;;;;1.45;1.45;;;;;;;-10.55;75.26;98736.00;4952970;28;20059;-75
2024/01/11 06:51:24;;;;;;;1.17;1.17;;;;;;;-10.47;75.46;98731.50;4955093;28;20043;-76
2024/01/11 06:53:52;;;;;;;1.40;1.40;;;;;;;-10.35;74.95;98728.63;4954243;29;20050;-75
2024/01/11 06:56:21;;;;;;;1.05;1.05;;;;;;;-10.41;75.25;98737.38;4936592;29;20487;-75
2024/01/11 06:58:49;;;;;;;1.65;1.65;;;;;;;-10.43;75.64;98743.44;4954958;29;20168;-75
2024/01/11 07:01:19;;;;;;;1.45;1.45;;;;;;;-10.39;75.64;98747.66;4955230;28;20043;-75
2024/01/11 07:03:47;;;;;;;1.27;1.27;;;;;;;-10.26;75.46;98738.72;4952454;28;20051;-75
2024/01/11 07:06:15;;;;;;;1.65;1.65;;;;;;;-10.08;74.95;98735.66;4952896;28;20061;-75
2024/01/11 07:08:42;;;;;;;1.33;1.33;;;;;;;-10.22;74.17;98735.19;4952633;29;20039;-73
2024/01/11 07:11:11;;;;;;;0.57;0.57;;;;;;;-10.28;74.84;98763.72;4950171;28;20396;-74
2024/01/11 07:13:38;;;;;;;0.95;0.95;;;;;;;-10.12;74.79;98770.16;4949935;28;22188;-73
2024/01/11 07:16:06;;;;;;;1.88;1.85;;;;;;;-9.94;74.56;98778.31;4951398;28;20074;-74
2024/01/11 07:18:35;;;;;;;1.67;1.65;;;;;;;-9.87;74.34;98772.13;4952737;28;20053;-75
2024/01/11 07:21:04;;;;;;;1.83;1.80;;;;;;;-9.87;74.02;98782.44;4956500;28;20094;-75
2024/01/11 07:23:32;;;;;;;1.35;1.35;;;;;;;-9.88;73.82;98785.91;4952814;28;20039;-75
2024/01/11 07:25:59;;;;;;;1.45;1.45;;;;;;;-9.86;73.39;98784.13;4953208;28;20047;-76
2024/01/11 07:28:27;;;;;;;1.58;1.58;;;;;;;-9.90;73.47;98767.03;4953163;29;20043;-74
2024/01/11 07:30:55;;;;;;;0.40;0.40;;;;;;;-10.22;73.75;98773.03;4951630;29;20387;-74
2024/01/11 07:33:22;;;;;;;1.05;1.05;;;;;;;-10.36;74.00;98769.94;4954713;29;20078;-74
2024/01/11 07:35:51;;;;;;;1.23;1.23;;;;;;;-10.59;74.19;98780.81;4954350;28;20051;-75
2024/01/11 07:38:20;;;;;;;1.30;1.20;;;;;;;-10.72;74.90;98785.41;4954112;29;20558;-75
2024/01/11 07:40:47;;;;;;;1.65;1.65;;;;;;;-10.65;74.88;98773.22;4952339;28;20046;-75
2024/01/11 07:43:15;;;;;;;1.65;1.65;;;;;;;-10.65;75.08;98774.06;4952424;29;20050;-75
2024/01/11 07:45:42;;;;;;;1.45;1.45;;;;;;;-10.58;74.93;98779.91;4951946;28;20491;-75
2024/01/11 07:48:10;;;;;;;1.38;1.38;;;;;;;-10.56;75.06;98785.88;4942482;29;20134;-75
2024/01/11 07:50:37;;;;;;;1.40;1.40;;;;;;;-10.44;75.01;98789.03;4948922;28;20052;-75
2024/01/11 07:53:06;;;;;;;1.42;1.42;;;;;;;-10.21;74.59;98787.63;4952133;29;20047;-75
2024/01/11 07:55:34;;;;;;;1.27;1.27;;;;;;;-10.19;74.44;98778.13;4950650;28;20079;-76
2024/01/11 07:58:02;;;;;;;1.30;1.30;;;;;;;-10.12;74.81;98764.16;4953441;29;20130;-76
2024/01/11 08:00:29;;;;;;;1.35;1.35;;;;;;;-10.25;74.90;98762.78;4953765;29;20119;-73
2024/01/11 08:02:57;;;;;;;1.50;1.40;;;;;;;-10.34;75.34;98763.00;4951485;28;20043;-73
2024/01/11 08:05:25;;;;;;;1.30;1.30;;;;;;;-10.46;75.25;98746.09;4955190;28;20039;-73
2024/01/11 08:07:52;;;;;;;1.15;1.15;;;;;;;-10.35;75.68;98763.91;4955453;29;20071;-73
2024/01/11 08:10:21;;;;;;;1.48;1.48;;;;;;;-10.16;75.24;98752.19;4954257;29;20081;-73
2024/01/11 08:12:49;;;;;;;1.35;1.35;;;;;;;-10.23;75.46;98753.28;4954682;28;20039;-73
2024/01/11 08:15:16;;;;;;;1.05;1.05;;;;;;;-10.21;75.79;98744.63;4954756;28;20502;-73
2024/01/11 08:17:45;;;;;;;1.60;1.60;;;;;;;-10.24;75.81;98734.38;4953126;29;20768;-73
2024/01/11 08:20:15;;;;;;;1.63;1.63;;;;;;;-10.18;76.18;98738.53;4954386;28;20069;-74
2024/01/11 08:22:43;;;;;;;1.15;1.15;;;;;;;-10.01;75.35;98732.03;4954612;28;20035;-73
2024/01/11 08:25:11;;;;;;;0.60;0.60;;;;;;;-9.82;74.63;98729.78;4953748;28;20470;-73
2024/01/11 08:27:40;;;;;;;1.55;1.55;;;;;;;-9.72;74.99;98717.47;4950540;28;20161;-73
2024/01/11 08:30:09;;;;;;;0.65;0.65;;;;;;;-9.72;75.33;98718.31;4950425;28;20410;-74
2024/01/11 08:32:39;;;;;;;0.98;0.98;;;;;;;-9.70;75.69;98706.22;4950772;28;20083;-73
2024/01/11 08:35:09;;;;;;;0.98;0.98;;;;;;;-9.63;75.84;98725.81;4947172;28;20417;-73
2024/01/11 08:37:37;;;;;;;1.27;1.27;;;;;;;-9.74;76.72;98732.16;4955384;28;20047;-73
2024/01/11 08:40:07;;;;;;;1.52;1.52;;;;;;;-9.71;77.13;98739.81;4955636;28;20122;-76
2024/01/11 08:42:34;;;;;;;1.27;1.27;;;;;;;-9.56;77.08;98733.41;4955729;29;20170;-75
2024/01/11 08:45:06;;;;;;;1.15;1.15;;;;;;;-9.51;77.09;98721.19;4956003;28;20114;-75
2024/01/11 08:47:34;;;;;;;1.20;1.20;;;;;;;-9.34;76.99;98706.03;4955566;28;20086;-75
2024/01/11 08:50:05;;;;;;;1.65;1.65;;;;;;;-9.28;76.92;98706.72;4955909;29;20070;-74
2024/01/11 08:52:33;;;;;;;1.00;1.00;;;;;;;-9.18;76.97;98701.28;4957195;29;20039;-75
2024/01/11 08:55:01;;;;;;;1.25;1.25;;;;;;;-9.16;77.37;98708.09;4951290;28;20043;-75
2024/01/11 08:57:29;;;;;;;0.60;0.60;;;;;;;-9.10;77.66;98718.25;4955617;28;20418;-75
2024/01/11 08:59:56;;;;;;;1.30;1.30;;;;;;;-8.99;77.58;98725.69;4953466;28;20043;-75
2024/01/11 09:02:25;;;;;;;1.08;1.08;;;;;;;-8.86;77.03;98726.16;4952033;29;20047;-75
2024/01/11 09:04:54;;;;;;;1.63;1.63;;;;;;;-8.79;77.57;98728.50;4955587;28;20049;-75
2024/01/11 09:07:22;;;;;;;0.60;0.60;;;;;;;-8.69;77.48;98731.63;4949113;28;20468;-75
2024/01/11 09:09:49;;;;;;;1.17;1.17;;;;;;;-8.67;77.49;98712.59;4953867;28;20090;-74
2024/01/11 09:12:23;;;;;;;1.23;1.23;;;;;;;-8.68;77.71;98717.81;4942551;29;20100;-73
2024/01/11 09:14:51;;;;;;;1.15;1.15;;;;;;;-8.54;77.29;98718.25;4955879;28;20051;-73
2024/01/11 09:17:19;;;;;;;1.23;1.23;;;;;;;-8.45;77.57;98728.28;4955538;29;20118;-73
2024/01/11 09:19:48;;;;;;;1.70;1.70;;;;;;;-8.39;77.68;98709.97;4954266;29;20066;-73
2024/01/11 09:22:16;;;;;;;1.25;1.25;;;;;;;-8.29;77.62;98738.94;4955934;29;20052;-74
2024/01/11 09:24:43;;;;;;;0.50;0.50;;;;;;;-8.19;77.36;98737.72;4955424;28;20380;-74
2024/01/11 09:27:12;;;;;;;1.33;1.33;;;;;;;-8.19;77.27;98729.97;4949343;28;20047;-74
2024/01/11 09:29:43;;;;;;;1.38;1.38;;;;;;;-8.11;77.56;98740.94;4955244;29;20050;-76
2024/01/11 09:32:11;;;;;;;1.00;1.00;;;;;;;-7.98;77.50;98736.16;4950513;29;20047;-74
2024/01/11 09:34:39;;;;;;;0.70;0.70;;;;;;;-7.85;76.90;98735.69;4954523;28;20068;-73
2024/01/11 09:37:08;;;;;;;1.42;1.42;;;;;;;-7.69;76.92;98746.41;4954050;28;20090;-74
2024/01/11 09:39:35;;;;;;;1.52;1.52;;;;;;;-7.62;76.68;98755.63;4954809;29;20054;-75
2024/01/11 09:42:09;;;;;;;1.20;1.20;;;;;;;-7.56;76.39;98741.59;4955356;29;20043;-74
2024/01/11 09:44:38;;;;;;;1.27;1.27;;;;;;;-7.40;76.50;98732.38;4954539;28;20039;-75
2024/01/11 09:47:07;;;;;;;1.45;1.45;;;;;;;-7.29;76.01;98722.47;4954693;28;20043;-75
2024/01/11 09:49:37;;;;;;;1.25;1.25;;;;;;;-7.16;75.82;98722.84;4954887;29;20047;-75
2024/01/11 09:52:09;;;;;;;1.15;1.15;;;;;;;-7.23;76.13;98724.81;4953549;29;20051;-74
2024/01/11 09:54:37;;;;;;;0.75;0.70;;;;;;;-7.19;76.22;98731.59;4953777;28;20039;-75
2024/01/11 09:57:05;;;;;;;1.85;1.85;;;;;;;-7.09;76.15;98738.13;4954695;28;20078;-75
2024/01/11 09:59:33;;;;;;;1.48;1.48;;;;;;;-7.03;75.98;98737.88;4955086;28;20043;-75
2024/01/11 10:02:02;;;;;;;1.75;1.75;;;;;;;-6.96;75.91;98737.69;4954828;28;20486;-75
2024/01/11 10:04:30;;;;;;;1.50;1.50;;;;;;;-6.92;75.64;98726.25;4955127;28;20036;-75
2024/01/11 10:06:58;;;;;;;1.58;1.58;;;;;;;-6.84;75.65;98726.81;4954709;29;20487;-75
2024/01/11 10:09:27;;;;;;;1.52;1.52;;;;;;;-6.71;75.64;98744.44;4954412;29;20114;-73
2024/01/11 10:11:55;;;;;;;1.50;1.50;;;;;;;-6.60;75.50;98741.44;4954289;28;20052;-75
2024/01/11 10:14:23;;;;;;;1.50;1.50;;;;;;;-6.48;75.28;98747.91;4955819;28;20097;-75
2024/01/11 10:16:51;;;;;;;1.25;1.25;;;;;;;-6.41;75.09;98751.94;4955358;29;20051;-75
2024/01/11 10:19:21;;;;;;;1.25;1.25;;;;;;;-6.32;75.37;98749.81;4954203;29;20047;-76
2024/01/11 10:21:49;;;;;;;1.70;1.70;;;;;;;-6.28;74.39;98739.31;4954808;28;20047;-74
2024/01/11 10:24:20;;;;;;;0.50;0.50;;;;;;;-6.27;74.84;98741.84;4937629;29;20427;-77
2024/01/11 10:26:49;;;;;;;2.00;1.95;;;;;;;-6.21;74.45;98728.59;4955723;28;20127;-74
2024/01/11 10:29:18;;;;;;;0.52;0.52;;;;;;;-6.25;74.89;98741.78;4958073;29;20384;-73
2024/01/11 10:31:45;;;;;;;1.52;1.52;;;;;;;-6.14;75.03;98735.25;4958066;29;20043;-73
2024/01/11 10:34:13;;;;;;;1.65;1.55;;;;;;;-6.02;74.89;98744.28;4958969;28;20036;-73
2024/01/11 10:36:41;;;;;;;1.80;1.80;;;;;;;-5.95;74.34;98733.56;4960566;28;20101;-73
2024/01/11 10:39:11;;;;;;;1.13;1.13;;;;;;;-5.87;74.58;98737.56;4959734;29;20098;-73
2024/01/11 10:41:41;;;;;;;1.38;1.38;;;;;;;-5.83;74.83;98737.38;4957995;29;20103;-73
2024/01/11 10:44:17;;;;;;;1.42;1.42;;;;;;;-5.81;74.55;98729.50;4956954;28;20562;-73
2024/01/11 10:46:46;;;;;;;1.42;1.42;;;;;;;-5.75;75.06;98729.25;4961397;28;20051;-73
2024/01/11 10:49:18;;;;;;;1.58;1.58;;;;;;;-5.68;74.92;98723.69;4960352;29;20147;-75
2024/01/11 10:51:50;;;;;;;1.50;1.50;;;;;;;-5.59;74.79;98728.50;4961655;28;20086;-73
2024/01/11 10:54:19;;;;;;;1.50;1.50;;;;;;;-5.48;74.64;98730.63;4962330;28;20046;-75
2024/01/11 10:56:47;;;;;;;1.42;1.42;;;;;;;-5.53;74.71;98718.75;4953373;28;20039;-73
2024/01/11 10:59:17;;;;;;;1.35;1.35;;;;;;;-5.50;75.28;98705.63;4953832;29;20070;-73
2024/01/11 11:01:45;;;;;;;1.13;1.13;;;;;;;-5.44;74.59;98705.34;4952893;29;20113;-73
2024/01/11 11:04:14;;;;;;;1.20;1.20;;;;;;;-5.44;75.27;98692.34;4950640;28;20521;-73
2024/01/11 11:06:42;;;;;;;0.63;0.63;;;;;;;-5.33;74.96;98703.13;4953802;29;20447;-76
2024/01/11 11:09:11;;;;;;;1.60;1.58;;;;;;;-5.21;74.65;98700.81;4949974;29;20130;-73
2024/01/11 11:11:40;;;;;;;1.90;1.85;;;;;;;-5.15;74.59;98691.03;4953410;28;20047;-72
2024/01/11 11:14:08;;;;;;;1.35;1.35;;;;;;;-5.08;74.87;98695.03;4953931;28;20090;-73
2024/01/11 11:16:37;;;;;;;1.92;1.88;;;;;;;-5.02;74.55;98687.78;4953586;28;20047;-73
2024/01/11 11:19:05;;;;;;;1.55;1.55;;;;;;;-4.92;74.62;98689.06;4953440;28;20051;-73
2024/01/11 11:21:32;;;;;;;1.42;1.42;;;;;;;-4.86;74.85;98678.34;4953951;29;20047;-74
2024/01/11 11:24:00;;;;;;;1.35;1.35;;;;;;;-4.76;74.55;98675.28;4954921;28;20483;-74
2024/01/11 11:26:28;;;;;;;0.60;0.60;;;;;;;-4.74;74.69;98670.88;4952920;28;20047;-74
2024/01/11 11:28:56;;;;;;;1.45;1.45;;;;;;;-4.63;74.80;98658.19;4951184;29;20511;-72
2024/01/11 11:31:37;;;;;;;1.50;1.50;;;;;;;-4.57;74.29;98663.91;4953970;28;20483;-73
2024/01/11 11:34:05;;;;;;;1.40;1.40;;;;;;;-4.47;73.86;98677.38;4953903;28;20142;-75
2024/01/11 11:36:34;;;;;;;1.38;1.38;;;;;;;-4.38;74.03;98674.31;4953158;29;20118;-73